Time;durP1;ratioP1;P1;durP2;ratioP2;P2;SDS_P1;SDS_P2;PMS_P1;PMS_P2;Temp;Humidity;BMP_temperature;BMP_pressure;BME280_temperature;BME280_humidity;BME280_pressure;Samples;Min_cycle;Max_cycle;Signal;HPM_P1;HPM_P2
2022/10/25 00:02:33;;;;;;;8.07;2.67;;;;;;;-144.59;100.00;63158.22;5003339;28;20194;-82
2022/10/25 00:05:05;;;;;;;8.87;2.40;;;;;;;-144.59;100.00;63158.22;4967816;28;20196;-83
2022/10/25 00:07:35;;;;;;;11.03;2.50;;;;;;;-144.59;100.00;63158.22;5026286;28;20217;-82
2022/10/25 00:10:03;;;;;;;12.53;2.63;;;;;;;-144.59;100.00;63158.22;5025103;28;20205;-82
2022/10/25 00:12:34;;;;;;;9.50;2.37;;;;;;;-144.59;100.00;63158.22;5028606;28;20190;-82
2022/10/25 00:15:03;;;;;;;6.50;2.10;;;;;;;-144.59;100.00;63158.22;5024598;28;20194;-82
2022/10/25 00:17:32;;;;;;;8.50;2.30;;;;;;;-144.59;100.00;63158.22;5025213;28;20193;-82
2022/10/25 00:20:02;;;;;;;5.57;1.90;;;;;;;-144.59;100.00;63158.22;5021791;28;20217;-82
2022/10/25 00:22:32;;;;;;;7.97;2.23;;;;;;;-144.59;100.00;63158.22;5029981;28;20212;-82
2022/10/25 00:25:00;;;;;;;7.77;2.50;;;;;;;-144.59;100.00;63158.22;5024212;28;20209;-82
2022/10/25 00:27:31;;;;;;;9.00;2.10;;;;;;;-144.59;100.00;63158.22;4969904;28;20258;-82
2022/10/25 00:30:00;;;;;;;7.00;2.30;;;;;;;-144.59;100.00;63158.22;5006021;28;20228;-83
2022/10/25 00:32:34;;;;;;;8.07;2.80;;;;;;;-144.59;100.00;63158.22;5028130;28;20190;-82
2022/10/25 00:35:08;;;;;;;5.73;2.20;;;;;;;-144.59;100.00;63158.22;4954190;29;20203;-82
2022/10/25 00:37:41;;;;;;;6.83;2.40;;;;;;;-144.59;100.00;63158.22;4952588;29;20224;-82
2022/10/25 00:40:11;;;;;;;6.93;2.10;;;;;;;-144.59;100.00;63158.22;4947932;29;20345;-81
2022/10/25 00:42:41;;;;;;;8.93;2.77;;;;;;;-144.59;100.00;63158.22;4949326;29;20236;-82
2022/10/25 00:45:22;;;;;;;8.73;2.90;;;;;;;-144.59;100.00;63158.22;4967255;28;20198;-83
2022/10/25 00:47:56;;;;;;;6.23;2.20;;;;;;;-144.59;100.00;63158.22;5007086;28;20272;-83
2022/10/25 00:50:49;;;;;;;5.93;2.17;;;;;;;-144.59;100.00;63158.22;5002728;28;20198;-82
2022/10/25 00:53:26;;;;;;;7.97;2.13;;;;;;;-144.59;100.00;63158.22;4929615;29;20208;-83
2022/10/25 00:56:11;;;;;;;6.80;2.43;;;;;;;-144.59;100.00;63158.22;4931497;29;20220;-82
2022/10/25 00:58:41;;;;;;;7.17;2.67;;;;;;;-144.59;100.00;63158.22;4935710;28;20197;-83
2022/10/25 01:01:13;;;;;;;7.70;2.67;;;;;;;-144.59;100.00;63158.22;4913406;29;20201;-83
2022/10/25 01:03:43;;;;;;;10.27;3.47;;;;;;;-144.59;100.00;63158.22;4911950;29;20202;-82
2022/10/25 01:06:22;;;;;;;10.53;3.23;;;;;;;-144.59;100.00;63158.22;4912397;29;20194;-82
2022/10/25 01:08:53;;;;;;;9.70;3.10;;;;;;;-144.59;100.00;63158.22;4911007;29;20311;-82
2022/10/25 01:11:22;;;;;;;7.67;3.33;;;;;;;-144.59;100.00;63158.22;4933182;28;20208;-82
2022/10/25 01:13:52;;;;;;;6.67;2.97;;;;;;;-144.59;100.00;63158.22;4972194;28;20208;-83
2022/10/25 01:16:28;;;;;;;8.90;3.00;;;;;;;-144.59;100.00;63158.22;4932332;29;20197;-83
2022/10/25 01:19:05;;;;;;;11.30;3.37;;;;;;;-144.59;100.00;63158.22;4915234;29;20228;-83
2022/10/25 01:21:50;;;;;;;9.60;3.00;;;;;;;-144.59;100.00;63158.22;4912226;29;20236;-82
2022/10/25 01:24:54;;;;;;;7.20;2.80;;;;;;;-144.59;100.00;63158.22;4909758;29;20194;-83
2022/10/25 01:27:42;;;;;;;10.07;3.20;;;;;;;-144.59;100.00;63158.22;4906429;29;20222;-82
2022/10/25 01:30:22;;;;;;;8.50;3.40;;;;;;;-144.59;100.00;63158.22;4906761;29;20197;-82
2022/10/25 01:33:05;;;;;;;5.83;2.73;;;;;;;-144.59;100.00;63158.22;4926479;28;20200;-83
2022/10/25 01:35:43;;;;;;;11.90;3.23;;;;;;;-144.59;100.00;63158.22;4948618;28;20260;-83
2022/10/25 01:38:28;;;;;;;6.80;2.90;;;;;;;-144.59;100.00;63158.22;4935884;28;20196;-83
2022/10/25 01:41:05;;;;;;;7.40;3.13;;;;;;;-144.59;100.00;63158.22;4951326;28;20204;-83
2022/10/25 01:43:41;;;;;;;9.53;3.00;;;;;;;-144.59;100.00;63158.22;4948423;28;20221;-82
2022/10/25 01:46:19;;;;;;;8.93;2.57;;;;;;;-144.59;100.00;63158.22;4912029;29;20293;-82
2022/10/25 01:48:57;;;;;;;11.83;2.90;;;;;;;-144.59;100.00;63158.22;4950066;28;20375;-82
2022/10/25 01:51:29;;;;;;;7.13;2.83;;;;;;;-144.59;100.00;63158.22;4949455;28;20279;-83
2022/10/25 01:54:00;;;;;;;11.03;2.87;;;;;;;-144.59;100.00;63158.22;4943521;28;20197;-83
2022/10/25 01:56:32;;;;;;;7.60;2.47;;;;;;;-144.59;100.00;63158.22;4964775;28;20276;-82
2022/10/25 01:59:31;;;;;;;10.83;2.93;;;;;;;-144.59;100.00;63158.22;4986597;28;20250;-83
2022/10/25 02:02:06;;;;;;;9.00;2.47;;;;;;;-144.59;100.00;63158.22;4966741;28;20255;-82
2022/10/25 02:04:47;;;;;;;6.83;2.50;;;;;;;-144.59;100.00;63158.22;4946838;28;20196;-82
2022/10/25 02:07:25;;;;;;;8.90;2.70;;;;;;;-144.59;100.00;63158.22;4951166;28;20695;-82
2022/10/25 02:10:03;;;;;;;9.13;2.37;;;;;;;-144.59;100.00;63158.22;4956293;28;20200;-82
2022/10/25 02:12:38;;;;;;;11.37;2.60;;;;;;;-144.59;100.00;63158.22;5006243;28;20225;-82
2022/10/25 02:15:14;;;;;;;6.10;2.10;;;;;;;-144.59;100.00;63158.22;5006183;28;20240;-82
2022/10/25 02:17:48;;;;;;;7.20;2.43;;;;;;;-144.59;100.00;63158.22;4967565;28;20246;-82
2022/10/25 02:20:27;;;;;;;10.80;2.40;;;;;;;-144.59;100.00;63158.22;4971905;28;20219;-82
2022/10/25 02:22:57;;;;;;;4.57;2.17;;;;;;;-144.59;100.00;63158.22;4965639;28;20248;-82
2022/10/25 02:25:29;;;;;;;5.60;2.23;;;;;;;-144.59;100.00;63158.22;5021408;28;20210;-82
2022/10/25 02:28:00;;;;;;;11.37;2.80;;;;;;;-144.59;100.00;63158.22;5025546;28;20213;-83
2022/10/25 02:30:32;;;;;;;8.50;2.50;;;;;;;-144.59;100.00;63158.22;5022443;28;20194;-83
2022/10/25 02:33:02;;;;;;;4.80;2.27;;;;;;;-144.59;100.00;63158.22;5025705;28;20200;-81
2022/10/25 02:35:34;;;;;;;6.97;2.83;;;;;;;-144.59;100.00;63158.22;5032743;28;20231;-82
2022/10/25 02:38:05;;;;;;;10.33;2.67;;;;;;;-144.59;100.00;63158.22;5046426;28;20201;-82
2022/10/25 02:40:38;;;;;;;6.27;2.20;;;;;;;-144.59;100.00;63158.22;5040955;28;20198;-82
2022/10/25 02:43:07;;;;;;;6.83;2.13;;;;;;;-144.59;100.00;63158.22;5043797;28;20220;-82
2022/10/25 02:45:37;;;;;;;8.20;2.20;;;;;;;-144.59;100.00;63158.22;5046621;28;20247;-82
2022/10/25 02:48:06;;;;;;;7.83;2.70;;;;;;;-144.59;100.00;63158.22;4945061;29;20631;-82
2022/10/25 02:50:39;;;;;;;7.37;2.27;;;;;;;-144.59;100.00;63158.22;4944209;28;20200;-83
2022/10/25 02:53:09;;;;;;;6.30;2.03;;;;;;;-144.59;100.00;63158.22;4896608;29;20342;-82
2022/10/25 02:55:38;;;;;;;8.20;2.17;;;;;;;-144.59;100.00;63158.22;4893430;29;20198;-82
2022/10/25 02:58:07;;;;;;;6.00;2.40;;;;;;;-144.59;100.00;63158.22;4841447;29;20211;-82
2022/10/25 03:00:37;;;;;;;5.53;2.10;;;;;;;-144.59;100.00;63158.22;4840726;29;20336;-82
2022/10/25 03:03:06;;;;;;;6.87;2.57;;;;;;;-144.59;100.00;63158.22;4838525;29;20257;-82
2022/10/25 03:05:39;;;;;;;7.40;2.60;;;;;;;-144.59;100.00;63158.22;4817450;29;20204;-82
2022/10/25 03:08:10;;;;;;;5.47;2.33;;;;;;;-144.59;100.00;63158.22;4859112;29;20203;-82
2022/10/25 03:10:42;;;;;;;6.20;3.03;;;;;;;-144.59;100.00;63158.22;4822508;29;20239;-82
2022/10/25 03:13:10;;;;;;;8.57;2.80;;;;;;;-144.59;100.00;63158.22;4806344;29;20263;-82
2022/10/25 03:15:39;;;;;;;11.53;4.00;;;;;;;-144.59;100.00;63158.22;4828173;29;20645;-83
2022/10/25 03:18:07;;;;;;;8.27;3.27;;;;;;;-144.59;100.00;63158.22;4848618;29;20200;-83
2022/10/25 03:20:41;;;;;;;6.47;3.63;;;;;;;-144.59;100.00;63158.22;4911499;29;20225;-83
2022/10/25 03:23:15;;;;;;;8.03;3.73;;;;;;;-144.59;100.00;63158.22;4916707;29;20198;-82
2022/10/25 03:25:51;;;;;;;5.77;4.00;;;;;;;-144.59;100.00;63158.22;4933515;29;20205;-83
2022/10/25 03:28:22;;;;;;;7.47;3.97;;;;;;;-144.59;100.00;63158.22;4949002;28;20673;-82
2022/10/25 03:30:55;;;;;;;10.03;4.20;;;;;;;-144.59;100.00;63158.22;5007645;28;20281;-82
2022/10/25 03:33:28;;;;;;;8.30;4.10;;;;;;;-144.59;100.00;63158.22;4936391;29;20311;-82
2022/10/25 03:35:59;;;;;;;6.50;3.57;;;;;;;-144.59;100.00;63158.22;4929929;29;20205;-82
2022/10/25 03:38:28;;;;;;;6.80;3.93;;;;;;;-144.59;100.00;63158.22;4927040;29;20229;-83
2022/10/25 03:40:57;;;;;;;11.03;3.80;;;;;;;-144.59;100.00;63158.22;4926785;29;20246;-82
2022/10/25 03:43:26;;;;;;;7.10;3.77;;;;;;;-144.59;100.00;63158.22;4970421;28;20195;-82
2022/10/25 03:45:58;;;;;;;7.40;4.00;;;;;;;-144.59;100.00;63158.22;4936760;29;20244;-82
2022/10/25 03:48:27;;;;;;;5.97;3.57;;;;;;;-144.59;100.00;63158.22;4977738;28;20713;-82
2022/10/25 03:50:57;;;;;;;6.93;3.57;;;;;;;-144.59;100.00;63158.22;5002219;28;20193;-82
2022/10/25 03:53:27;;;;;;;8.17;4.10;;;;;;;-144.59;100.00;63158.22;5011320;28;20203;-82
2022/10/25 03:55:56;;;;;;;10.80;3.60;;;;;;;-144.59;100.00;63158.22;5013419;28;20190;-82
2022/10/25 03:58:24;;;;;;;9.00;4.30;;;;;;;-144.59;100.00;63158.22;5001789;28;20250;-81
2022/10/25 04:00:53;;;;;;;12.27;3.77;;;;;;;-144.59;100.00;63158.22;5010115;28;20654;-82
2022/10/25 04:03:22;;;;;;;6.83;3.73;;;;;;;-144.59;100.00;63158.22;5016047;28;20189;-81
2022/10/25 04:05:51;;;;;;;11.53;4.43;;;;;;;-144.59;100.00;63158.22;4969272;28;20222;-81
2022/10/25 04:08:26;;;;;;;9.10;3.80;;;;;;;-144.59;100.00;63158.22;4969568;28;20250;-81
2022/10/25 04:10:57;;;;;;;8.80;3.73;;;;;;;-144.59;100.00;63158.22;4973427;28;20202;-81
2022/10/25 04:13:25;;;;;;;6.57;4.00;;;;;;;-144.59;100.00;63158.22;5003226;28;20198;-81
2022/10/25 04:15:55;;;;;;;11.00;4.10;;;;;;;-144.59;100.00;63158.22;5009647;28;20645;-81
2022/10/25 04:18:24;;;;;;;10.40;4.80;;;;;;;-144.59;100.00;63158.22;5006177;28;20245;-81
2022/10/25 04:20:53;;;;;;;9.97;4.10;;;;;;;-144.59;100.00;63158.22;4933109;29;20244;-82
2022/10/25 04:23:23;;;;;;;10.67;4.20;;;;;;;-144.59;100.00;63158.22;4893316;29;20255;-81
2022/10/25 04:25:55;;;;;;;7.20;4.40;;;;;;;-144.59;100.00;63158.22;4851021;29;20705;-82
2022/10/25 04:28:24;;;;;;;7.50;4.80;;;;;;;-144.59;100.00;63158.22;4860494;29;20376;-81
2022/10/25 04:30:53;;;;;;;9.93;5.43;;;;;;;-144.59;100.00;63158.22;4894167;29;20221;-81
2022/10/25 04:33:22;;;;;;;12.33;5.23;;;;;;;-144.59;100.00;63158.22;4915202;29;20328;-81
2022/10/25 04:35:58;;;;;;;9.87;5.40;;;;;;;-144.59;100.00;63158.22;4912488;29;20273;-82
2022/10/25 04:38:28;;;;;;;11.80;5.70;;;;;;;-144.59;100.00;63158.22;4910228;29;20254;-81
2022/10/25 04:41:01;;;;;;;10.03;5.27;;;;;;;-144.59;100.00;63158.22;4846340;29;20263;-81
2022/10/25 04:43:33;;;;;;;8.80;5.20;;;;;;;-144.59;100.00;63158.22;4858923;29;20227;-82
2022/10/25 04:46:07;;;;;;;10.40;5.40;;;;;;;-144.59;100.00;63158.22;4896461;29;20197;-81
2022/10/25 04:48:38;;;;;;;8.77;4.90;;;;;;;-144.59;100.00;63158.22;4892747;29;20661;-82
2022/10/25 04:51:08;;;;;;;10.20;4.80;;;;;;;-144.59;100.00;63158.22;4896995;29;20226;-81
2022/10/25 04:53:38;;;;;;;7.53;4.17;;;;;;;-144.59;100.00;63158.22;4890028;29;20674;-82
2022/10/25 04:56:10;;;;;;;8.20;4.70;;;;;;;-144.59;100.00;63158.22;4886485;29;20746;-82
2022/10/25 04:58:39;;;;;;;9.10;4.60;;;;;;;-144.59;100.00;63158.22;4856635;29;20726;-82
2022/10/25 05:01:12;;;;;;;7.33;4.70;;;;;;;-144.59;100.00;63158.22;4800233;29;20214;-81
2022/10/25 05:03:42;;;;;;;11.43;5.33;;;;;;;-144.59;100.00;63158.22;4800632;29;20213;-81
2022/10/25 05:06:13;;;;;;;6.70;4.80;;;;;;;-144.59;100.00;63158.22;4822621;29;20200;-83
2022/10/25 05:08:42;;;;;;;12.60;5.23;;;;;;;-144.59;100.00;63158.22;4840940;29;20776;-81
2022/10/25 05:11:14;;;;;;;8.17;4.90;;;;;;;-144.59;100.00;63158.22;4840934;29;20684;-81
2022/10/25 05:13:43;;;;;;;7.20;4.60;;;;;;;-144.59;100.00;63158.22;4873913;29;20235;-81
2022/10/25 05:16:16;;;;;;;10.00;5.13;;;;;;;-144.59;100.00;63158.22;4898761;29;20189;-81
2022/10/25 05:18:45;;;;;;;9.77;6.03;;;;;;;-144.59;100.00;63158.22;4971210;28;20230;-81
2022/10/25 05:21:15;;;;;;;14.07;6.57;;;;;;;-144.59;100.00;63158.22;5006642;28;20229;-82
2022/10/25 05:23:45;;;;;;;11.50;6.77;;;;;;;-144.59;100.00;63158.22;5009327;28;20202;-82
2022/10/25 05:26:17;;;;;;;11.20;7.03;;;;;;;-144.59;100.00;63158.22;5005500;28;20229;-81
2022/10/25 05:28:48;;;;;;;8.03;6.33;;;;;;;-144.59;100.00;63158.22;5003219;28;20303;-81
2022/10/25 05:31:19;;;;;;;9.17;6.73;;;;;;;-144.59;100.00;63158.22;5007410;28;20241;-81
2022/10/25 05:33:51;;;;;;;11.47;7.60;;;;;;;-144.59;100.00;63158.22;5069820;28;20208;-81
2022/10/25 05:36:20;;;;;;;9.83;7.70;;;;;;;-144.59;100.00;63158.22;5037825;28;20197;-81
2022/10/25 05:38:49;;;;;;;14.50;7.13;;;;;;;-144.59;100.00;63158.22;5060600;28;20347;-81
2022/10/25 05:41:22;;;;;;;9.63;6.23;;;;;;;-144.59;100.00;63158.22;5067080;28;20188;-81
2022/10/25 05:43:52;;;;;;;9.33;5.90;;;;;;;-144.59;100.00;63158.22;5069722;28;20207;-81
2022/10/25 05:46:22;;;;;;;8.57;6.10;;;;;;;-144.59;100.00;63158.22;5025301;28;20198;-82
2022/10/25 05:48:52;;;;;;;10.50;6.40;;;;;;;-144.59;100.00;63158.22;5021112;28;20246;-81
2022/10/25 05:51:32;;;;;;;11.50;6.93;;;;;;;-144.59;100.00;63158.22;5031695;28;20268;-81
2022/10/25 05:54:05;;;;;;;9.63;6.50;;;;;;;-144.59;100.00;63158.22;4989123;28;20222;-81
2022/10/25 05:56:42;;;;;;;10.13;6.50;;;;;;;-144.59;100.00;63158.22;4991931;28;20195;-82
2022/10/25 05:59:13;;;;;;;11.20;6.73;;;;;;;-144.59;100.00;63158.22;4979370;28;20689;-81
2022/10/25 06:01:45;;;;;;;9.60;6.83;;;;;;;-144.59;100.00;63158.22;4981937;28;20222;-81
2022/10/25 06:04:16;;;;;;;10.27;6.83;;;;;;;-144.59;100.00;63158.22;5014340;28;20268;-82
2022/10/25 06:06:50;;;;;;;12.03;7.53;;;;;;;-144.59;100.00;63158.22;5028517;28;20317;-82
2022/10/25 06:09:23;;;;;;;14.30;7.43;;;;;;;-144.59;100.00;63158.22;5025707;28;20283;-82
2022/10/25 06:11:57;;;;;;;11.67;8.00;;;;;;;-144.59;100.00;63158.22;4997546;28;20220;-81
2022/10/25 06:14:26;;;;;;;13.40;8.40;;;;;;;-144.59;100.00;63158.22;5003757;28;20346;-81
2022/10/25 06:16:56;;;;;;;13.07;8.17;;;;;;;-144.59;100.00;63158.22;5011484;28;20230;-81
2022/10/25 06:19:25;;;;;;;14.30;8.57;;;;;;;-144.59;100.00;63158.22;4914073;29;20281;-81
2022/10/25 06:21:55;;;;;;;17.30;8.03;;;;;;;-144.59;100.00;63158.22;4786682;29;20202;-81
2022/10/25 06:24:24;;;;;;;12.50;8.60;;;;;;;-144.59;100.00;63158.22;4786101;29;20243;-81
2022/10/25 06:26:55;;;;;;;12.97;7.57;;;;;;;-144.59;100.00;63158.22;4787315;29;20209;-82
2022/10/25 06:29:25;;;;;;;12.23;8.20;;;;;;;-144.59;100.00;63158.22;4782914;29;20198;-81
2022/10/25 06:31:54;;;;;;;14.83;7.90;;;;;;;-144.59;100.00;63158.22;4785842;29;20229;-81
2022/10/25 06:34:23;;;;;;;10.90;7.60;;;;;;;-144.59;100.00;63158.22;4786350;29;20244;-81
2022/10/25 06:36:52;;;;;;;10.03;7.00;;;;;;;-144.59;100.00;63158.22;4783261;29;20198;-82
2022/10/25 06:39:22;;;;;;;11.20;7.87;;;;;;;-144.59;100.00;63158.22;4845364;28;20203;-82
2022/10/25 06:42:01;;;;;;;14.10;8.10;;;;;;;-144.59;100.00;63158.22;4882852;29;20222;-82
2022/10/25 06:44:35;;;;;;;10.10;7.67;;;;;;;-144.59;100.00;63158.22;4935029;29;20240;-82
2022/10/25 06:47:08;;;;;;;11.63;7.03;;;;;;;-144.59;100.00;63158.22;4930416;29;20285;-83
2022/10/25 06:49:46;;;;;;;9.97;7.67;;;;;;;-144.59;100.00;63158.22;4941883;28;20199;-82
2022/10/25 06:52:18;;;;;;;13.20;6.53;;;;;;;-144.59;100.00;63158.22;4971213;28;20215;-82
2022/10/25 06:54:49;;;;;;;8.93;6.33;;;;;;;-144.59;100.00;63158.22;4973769;28;20235;-82
2022/10/25 06:57:20;;;;;;;12.30;7.10;;;;;;;-144.59;100.00;63158.22;4967611;28;20307;-81
2022/10/25 06:59:49;;;;;;;13.83;7.87;;;;;;;-144.59;100.00;63158.22;4988675;28;20209;-82
2022/10/25 07:02:28;;;;;;;8.87;6.60;;;;;;;-144.59;100.00;63158.22;4935242;29;20224;-82
2022/10/25 07:05:00;;;;;;;10.30;6.87;;;;;;;-144.59;100.00;63158.22;4932747;29;20244;-82
2022/10/25 07:07:30;;;;;;;17.07;7.40;;;;;;;-144.59;100.00;63158.22;4913635;29;20209;-82
2022/10/25 07:09:59;;;;;;;10.43;6.90;;;;;;;-144.59;100.00;63158.22;4873701;29;20239;-82
2022/10/25 07:12:36;;;;;;;10.10;6.40;;;;;;;-144.59;100.00;63158.22;4886737;29;20218;-82
2022/10/25 07:15:09;;;;;;;7.57;5.90;;;;;;;-144.59;100.00;63158.22;4911980;29;20209;-81
2022/10/25 07:17:38;;;;;;;7.57;5.20;;;;;;;-144.59;100.00;63158.22;4934187;29;20313;-82
2022/10/25 07:20:09;;;;;;;12.37;6.60;;;;;;;-144.59;100.00;63158.22;4884938;29;20245;-81
2022/10/25 07:22:38;;;;;;;10.33;6.37;;;;;;;-144.59;100.00;63158.22;4895305;29;20206;-81
2022/10/25 07:25:07;;;;;;;9.63;6.27;;;;;;;-144.59;100.00;63158.22;4895229;29;20270;-82
2022/10/25 07:27:43;;;;;;;15.97;6.87;;;;;;;-144.59;100.00;63158.22;4935705;28;20202;-82
2022/10/25 07:30:13;;;;;;;9.77;6.90;;;;;;;-144.59;100.00;63158.22;4877350;29;20274;-82
2022/10/25 07:32:48;;;;;;;10.10;6.97;;;;;;;-144.59;100.00;63158.22;4874768;29;20288;-82
2022/10/25 07:35:17;;;;;;;11.43;7.20;;;;;;;-144.59;100.00;63158.22;4859669;29;20207;-82
2022/10/25 07:37:47;;;;;;;9.70;7.37;;;;;;;-144.59;100.00;63158.22;4839093;29;20323;-82
2022/10/25 07:40:18;;;;;;;11.73;6.90;;;;;;;-144.59;100.00;63158.22;4840331;29;20208;-82
2022/10/25 07:42:52;;;;;;;10.83;7.40;;;;;;;-144.59;100.00;63158.22;4800244;29;20300;-82
2022/10/25 07:45:26;;;;;;;14.17;8.07;;;;;;;-144.59;100.00;63158.22;4813264;29;20208;-82
2022/10/25 07:48:00;;;;;;;11.80;7.77;;;;;;;-144.59;100.00;63158.22;4854538;29;20202;-82
2022/10/25 07:50:36;;;;;;;11.53;7.20;;;;;;;-144.59;100.00;63158.22;4876234;29;20247;-82
2022/10/25 07:53:11;;;;;;;11.70;7.30;;;;;;;-144.59;100.00;63158.22;4892373;29;20288;-82
2022/10/25 07:55:41;;;;;;;12.70;7.17;;;;;;;-144.59;100.00;63158.22;4927735;29;20205;-82
2022/10/25 07:58:16;;;;;;;15.53;6.87;;;;;;;-144.59;100.00;63158.22;4948260;29;20200;-82
2022/10/25 08:00:51;;;;;;;14.53;6.33;;;;;;;-144.59;100.00;63158.22;4951007;28;20201;-82
2022/10/25 08:03:40;;;;;;;11.67;7.03;;;;;;;-144.59;100.00;63158.22;5027333;28;20197;-82
2022/10/25 08:06:14;;;;;;;9.87;6.37;;;;;;;-144.59;100.00;63158.22;4961062;28;20285;-83
2022/10/25 08:09:00;;;;;;;10.23;6.03;;;;;;;-144.59;100.00;63158.22;4992113;28;20315;-83
2022/10/25 08:11:47;;;;;;;11.70;6.17;;;;;;;-144.59;100.00;63158.22;4935688;29;20225;-82
2022/10/25 08:14:25;;;;;;;11.47;5.40;;;;;;;-144.59;100.00;63158.22;4872161;29;20239;-83
2022/10/25 08:16:58;;;;;;;9.93;5.67;;;;;;;-144.59;100.00;63158.22;4876162;29;20195;-82
2022/10/25 08:19:38;;;;;;;11.23;4.87;;;;;;;-144.59;100.00;63158.22;4856355;29;20231;-82
2022/10/25 08:22:24;;;;;;;9.57;5.83;;;;;;;-144.59;100.00;63158.22;4858344;29;20203;-82
2022/10/25 08:25:05;;;;;;;8.23;5.80;;;;;;;-144.59;100.00;63158.22;4866342;29;20207;-82
2022/10/25 08:27:41;;;;;;;8.67;5.00;;;;;;;-144.59;100.00;63158.22;4793208;30;20378;-82
2022/10/25 08:33:10;;;;;;;10.13;5.33;;;;;;;-144.59;100.00;63158.22;4851351;29;20235;-82
2022/10/25 08:35:48;;;;;;;9.73;4.63;;;;;;;-144.59;100.00;63158.22;4843770;29;20270;-83
2022/10/25 08:38:21;;;;;;;6.70;3.93;;;;;;;-144.59;100.00;63158.22;4825314;29;20784;-83
2022/10/25 08:40:59;;;;;;;11.00;4.50;;;;;;;-144.59;100.00;63158.22;4821311;29;20385;-83
2022/10/25 08:43:56;;;;;;;12.07;4.37;;;;;;;-144.59;100.00;63158.22;4824863;29;20208;-83
2022/10/25 08:46:32;;;;;;;8.57;4.87;;;;;;;-144.59;100.00;63158.22;4801616;29;20239;-83
2022/10/25 08:49:22;;;;;;;8.30;4.57;;;;;;;-144.59;100.00;63158.22;4803652;29;20201;-83
2022/10/25 08:51:58;;;;;;;10.23;4.30;;;;;;;-144.59;100.00;63158.22;4839687;29;20234;-82
2022/10/25 08:54:37;;;;;;;10.20;4.83;;;;;;;-144.59;100.00;63158.22;4860908;29;20208;-82
2022/10/25 08:57:19;;;;;;;11.83;4.80;;;;;;;-144.59;100.00;63158.22;4842418;29;20216;-82
2022/10/25 09:00:09;;;;;;;10.60;4.37;;;;;;;-144.59;100.00;63158.22;4839111;29;20200;-82
2022/10/25 09:03:01;;;;;;;14.40;4.17;;;;;;;-144.59;100.00;63158.22;4839653;29;20205;-83
2022/10/25 09:05:54;;;;;;;8.90;4.03;;;;;;;-144.59;100.00;63158.22;4948869;28;20226;-82
2022/10/25 09:08:52;;;;;;;7.97;3.93;;;;;;;-144.59;100.00;63158.22;4946455;28;20247;-82
2022/10/25 09:11:43;;;;;;;7.80;3.73;;;;;;;-144.59;100.00;63158.22;4951429;28;20195;-82
2022/10/25 09:14:34;;;;;;;10.37;4.00;;;;;;;-144.59;100.00;63158.22;4948382;28;20212;-82
2022/10/25 09:17:19;;;;;;;8.93;4.50;;;;;;;-144.59;100.00;63158.22;4950152;28;20247;-83
2022/10/25 09:20:06;;;;;;;8.00;3.90;;;;;;;-144.59;100.00;63158.22;4951050;28;20279;-83
2022/10/25 09:22:46;;;;;;;8.97;3.70;;;;;;;-144.59;100.00;63158.22;4951211;28;20696;-83
2022/10/25 09:25:23;;;;;;;8.73;3.60;;;;;;;-144.59;100.00;63158.22;4841548;29;20212;-82
2022/10/25 09:27:59;;;;;;;7.57;4.03;;;;;;;-144.59;100.00;63158.22;4864829;29;20198;-83
2022/10/25 09:30:30;;;;;;;10.73;4.50;;;;;;;-144.59;100.00;63158.22;4922640;29;20200;-83
2022/10/25 09:33:03;;;;;;;8.77;4.17;;;;;;;-144.59;100.00;63158.22;4946524;29;20224;-83
2022/10/25 09:35:44;;;;;;;8.57;3.70;;;;;;;-144.59;100.00;63158.22;4914604;29;20292;-83
2022/10/25 09:38:22;;;;;;;8.67;4.50;;;;;;;-144.59;100.00;63158.22;4910147;29;20681;-83
2022/10/25 09:40:59;;;;;;;8.83;3.97;;;;;;;-144.59;100.00;63158.22;4910447;29;20209;-84
2022/10/25 09:43:37;;;;;;;9.03;4.23;;;;;;;-144.59;100.00;63158.22;4945136;28;20199;-83
2022/10/25 09:46:14;;;;;;;6.00;4.00;;;;;;;-144.59;100.00;63158.22;4983764;28;20231;-83
2022/10/25 09:48:53;;;;;;;10.73;4.00;;;;;;;-144.59;100.00;63158.22;4938539;28;20217;-84
2022/10/25 09:51:30;;;;;;;8.27;3.83;;;;;;;-144.59;100.00;63158.22;4971401;28;20203;-84
2022/10/25 09:54:06;;;;;;;10.33;4.23;;;;;;;-144.59;100.00;63158.22;4965613;28;20220;-83
2022/10/25 09:56:34;;;;;;;11.20;3.93;;;;;;;-144.59;100.00;63158.22;4968604;28;20675;-84
2022/10/25 09:59:04;;;;;;;10.27;4.13;;;;;;;-144.59;100.00;63158.22;4876481;29;20279;-82
2022/10/25 10:01:38;;;;;;;10.93;4.60;;;;;;;-144.59;100.00;63158.22;4895227;29;20199;-83
2022/10/25 10:04:25;;;;;;;12.23;4.33;;;;;;;-144.59;100.00;63158.22;4873850;29;20226;-83
2022/10/25 10:07:01;;;;;;;11.23;4.73;;;;;;;-144.59;100.00;63158.22;4855336;29;20274;-83
2022/10/25 10:09:38;;;;;;;10.40;4.33;;;;;;;-144.59;100.00;63158.22;4862968;29;20321;-83
2022/10/25 10:12:22;;;;;;;7.97;4.13;;;;;;;-144.59;100.00;63158.22;4892068;29;20222;-83
2022/10/25 10:15:01;;;;;;;12.87;5.03;;;;;;;-144.59;100.00;63158.22;4853291;29;20252;-83
2022/10/25 10:17:34;;;;;;;9.07;4.47;;;;;;;-144.59;100.00;63158.22;4867700;29;20214;-83
2022/10/25 10:20:12;;;;;;;13.00;5.33;;;;;;;-144.59;100.00;63158.22;4885302;29;20299;-82
2022/10/25 10:22:51;;;;;;;12.77;4.40;;;;;;;-144.59;100.00;63158.22;4883951;29;20206;-83
2022/10/25 10:25:25;;;;;;;8.33;4.33;;;;;;;-144.59;100.00;63158.22;4891158;29;20597;-83
2022/10/25 10:27:59;;;;;;;8.13;4.43;;;;;;;-144.59;100.00;63158.22;4837256;29;20668;-83
2022/10/25 10:30:30;;;;;;;9.83;3.80;;;;;;;-144.59;100.00;63158.22;4819902;29;20233;-83
2022/10/25 10:33:01;;;;;;;8.40;3.93;;;;;;;-144.59;100.00;63158.22;4884465;29;20217;-83
2022/10/25 10:35:33;;;;;;;12.10;3.70;;;;;;;-144.59;100.00;63158.22;4928187;29;20252;-83
2022/10/25 10:38:33;;;;;;;8.63;3.40;;;;;;;-144.59;100.00;63158.22;4928611;29;20209;-83
2022/10/25 10:41:15;;;;;;;8.33;3.03;;;;;;;-144.59;100.00;63158.22;4936955;28;20233;-84
2022/10/25 10:43:44;;;;;;;11.67;3.80;;;;;;;-144.59;100.00;63158.22;4928997;29;20203;-83
2022/10/25 10:46:18;;;;;;;7.87;3.13;;;;;;;-144.59;100.00;63158.22;4877551;29;20207;-83
2022/10/25 10:48:55;;;;;;;10.30;3.73;;;;;;;-144.59;100.00;63158.22;4895844;29;20750;-83
2022/10/25 10:51:37;;;;;;;8.57;3.37;;;;;;;-144.59;100.00;63158.22;4896657;29;20194;-83
2022/10/25 10:54:36;;;;;;;11.10;2.80;;;;;;;-144.59;100.00;63158.22;4913537;29;20424;-83
2022/10/25 10:57:23;;;;;;;8.47;3.10;;;;;;;-144.59;100.00;63158.22;4855166;29;20208;-83
2022/10/25 10:59:56;;;;;;;9.70;2.43;;;;;;;-144.59;100.00;63158.22;4852363;29;20204;-84
2022/10/25 11:02:28;;;;;;;6.80;2.80;;;;;;;-144.59;100.00;63158.22;4884190;29;20195;-84
2022/10/25 11:04:58;;;;;;;7.57;2.47;;;;;;;-144.59;100.00;63158.22;4905191;29;20617;-83
2022/10/25 11:07:31;;;;;;;4.63;1.30;;;;;;;-144.59;100.00;63158.22;4908808;29;20657;-83
2022/10/25 11:10:27;;;;;;;11.73;3.13;;;;;;;-144.59;100.00;63158.22;4907749;29;20202;-84
2022/10/25 11:13:21;;;;;;;4.17;1.43;;;;;;;-144.59;100.00;63158.22;4914774;29;20222;-83
2022/10/25 11:16:25;;;;;;;4.30;1.00;;;;;;;-144.59;100.00;63158.22;4942595;28;20250;-83
2022/10/25 11:19:17;;;;;;;3.40;1.10;;;;;;;-144.59;100.00;63158.22;5047378;28;20290;-82
2022/10/25 11:22:02;;;;;;;3.23;1.10;;;;;;;-144.59;100.00;63158.22;5070933;28;20334;-83
2022/10/25 11:24:45;;;;;;;4.53;2.40;;;;;;;-144.59;100.00;63158.22;5025834;28;20202;-83
2022/10/25 11:27:25;;;;;;;2.20;0.93;;;;;;;-144.59;100.00;63158.22;5029910;28;20240;-83
2022/10/25 11:30:04;;;;;;;4.67;1.20;;;;;;;-144.59;100.00;63158.22;5030908;28;20194;-83
2022/10/25 11:33:36;;;;;;;4.00;1.03;;;;;;;-144.59;100.00;63158.22;4936010;29;20256;-83
2022/10/25 11:36:19;;;;;;;3.90;1.17;;;;;;;-144.59;100.00;63158.22;4896459;29;20213;-83
2022/10/25 11:39:03;;;;;;;5.47;2.67;;;;;;;-144.59;100.00;63158.22;4915346;29;20293;-83
2022/10/25 11:41:45;;;;;;;2.73;0.93;;;;;;;-144.59;100.00;63158.22;4911134;29;20205;-82
2022/10/25 11:44:50;;;;;;;5.20;1.10;;;;;;;-144.59;100.00;63158.22;4950623;29;20204;-82
2022/10/25 11:47:30;;;;;;;3.73;1.03;;;;;;;-144.59;100.00;63158.22;4950097;29;20203;-82